Latest Weather Observations for Smithton

IDT60801

Issued at 9:35 am EDT Friday 28 November 2014 (issued every 30 minutes, with the page automatically refreshed every 10 minutes)

About weather observations | Map of weather stations | Latest weather observations for TAS | Other Formats
Station Details ID: 091292 Name: SMITHTON AERODROME Lat: -40.83 Lon: 145.08 Height: 7.5 m
Data from the previous 72 hours. | See also: Recent months at Smithton
Date/Time
EDT
Temp
°C
App
Temp
°C
Dew
Point
Rel
Hum
%
Delta-T
°C
Wind Press
QNH
hPa
Press
MSL
hPa
Rain
since 9 am
mm
Dir
 
Spd
km/h
Gust
km/h
Spd
kts
Gust
kts
28/09:30am 15.0 11.1 8.5 65 3.3 S 19 26 10 14 1023.2 - 0.0
28/09:00am 13.8 9.1 7.6 66 3.0 SSW 22 28 12 15 1023.6 1023.6 0.0
28/08:30am 12.9 8.6 7.8 71 2.5 S 20 24 11 13 1023.4 - 0.0
28/08:00am 11.5 7.1 7.2 75 2.1 S 20 26 11 14 1023.4 - 0.0
28/07:30am 10.3 6.3 6.8 79 1.6 S 17 22 9 12 1023.3 - 0.0
28/07:00am 8.8 4.7 6.4 85 1.1 SSW 17 20 9 11 1023.2 - 0.0
28/06:30am 7.4 3.2 5.7 89 0.8 SSW 17 20 9 11 1023.1 - 0.0
28/06:00am 6.7 2.4 5.3 91 0.6 SSW 17 20 9 11 1023.0 1023.0 0.0
28/05:30am 6.5 2.2 5.1 91 0.6 SSW 17 20 9 11 1022.9 - 0.0
28/05:00am 7.0 2.4 5.6 91 0.6 SSW 19 22 10 12 1022.8 - 0.0
28/04:30am 5.9 1.5 5.0 94 0.4 SSW 17 20 9 11 1022.6 - 0.0
28/04:00am 5.8 1.8 4.9 94 0.4 SSW 15 17 8 9 1022.6 - 0.0
28/03:30am 6.5 2.6 5.3 92 0.5 SSW 15 17 8 9 1022.6 - 0.0
28/03:00am 7.5 2.4 6.0 90 0.7 SSW 22 26 12 14 1022.6 1022.6 0.0
28/02:30am 7.7 3.0 6.2 90 0.7 SSW 20 26 11 14 1022.8 - 0.0
28/02:00am 7.6 2.9 6.1 90 0.7 S 20 26 11 14 1022.9 - 0.0
28/01:30am 7.8 3.3 6.1 89 0.8 S 19 22 10 12 1023.1 - 0.0
28/01:00am 8.4 3.4 6.4 87 0.9 SSW 22 28 12 15 1023.3 - 0.0
28/12:30am 8.6 3.3 6.6 87 0.9 S 24 32 13 17 1023.4 - 0.0
28/12:00am 8.9 2.8 6.7 86 1.0 SSW 28 33 15 18 1023.2 1023.2 0.0
 
Date/Time
EDT
Temp
°C
App
Temp
°C
Dew
Point
Rel
Hum
%
Delta-T
°C
Wind Press
QNH
hPa
Press
MSL
hPa
Rain
since 9 am
mm
Dir
 
Spd
km/h
Gust
km/h
Spd
kts
Gust
kts
27/11:30pm 8.9 2.8 6.7 86 1.0 SSW 28 35 15 19 1023.3 - 0.0
27/11:00pm 9.0 2.9 6.6 85 1.1 SSW 28 33 15 18 1023.3 - 0.0
27/10:30pm 9.2 3.5 6.8 85 1.1 SSW 26 33 14 18 1023.6 - 0.0
27/10:00pm 9.2 3.5 6.8 85 1.1 SSW 26 30 14 16 1023.5 - 0.0
27/09:30pm 10.0 5.5 6.9 81 1.5 SSW 20 26 11 14 1023.6 - 0.0
27/09:00pm 11.0 6.4 6.7 75 2.0 SW 20 24 11 13 1023.5 1023.5 0.0
27/08:30pm 11.8 7.3 6.9 72 2.3 SW 20 26 11 14 1023.5 - 0.0
27/08:00pm 13.8 9.6 7.3 65 3.2 SW 19 28 10 15 1023.5 - 0.0
27/07:30pm 15.1 9.2 7.4 60 3.8 SW 28 35 15 19 1023.1 - 0.0
27/07:00pm 16.2 9.9 7.4 56 4.4 SW 30 37 16 20 1022.9 - 0.0
27/06:30pm 16.8 10.5 7.4 54 4.7 SW 30 35 16 19 1022.8 - 0.0
27/06:00pm 17.7 11.5 8.0 53 4.9 SW 30 37 16 20 1022.8 1022.8 0.0
27/05:30pm 18.0 11.9 8.3 53 5.0 SW 30 37 16 20 1022.8 - 0.0
27/05:00pm 18.1 11.8 7.2 49 5.5 SW 30 37 16 20 1023.1 - 0.0
27/04:30pm 17.9 11.0 6.4 47 5.7 SW 32 39 17 21 1023.3 - 0.0
27/04:00pm 18.2 11.4 6.7 47 5.7 SSW 32 41 17 22 1023.3 - 0.0
27/03:30pm 18.8 12.2 7.6 48 5.7 SSW 32 43 17 23 1023.6 - 0.0
27/03:00pm 19.1 13.1 8.7 51 5.4 SW 30 43 16 23 1023.9 1023.9 0.0
27/02:30pm 18.5 11.8 7.3 48 5.7 SSW 32 43 17 23 1024.1 - 0.0
27/02:00pm 19.2 12.9 9.1 52 5.3 SSW 32 41 17 22 1024.2 - 0.0
27/01:30pm 18.5 12.4 8.2 51 5.3 SSW 30 39 16 21 1024.4 - 0.0
27/01:00pm 18.1 11.3 7.8 51 5.2 SW 33 44 18 24 1024.6 - 0.0
27/12:30pm 17.6 11.3 7.4 51 5.1 SW 30 39 16 21 1024.5 - 0.0
27/12:00pm 17.0 9.9 6.5 50 5.1 SW 33 43 18 23 1024.7 1024.7 0.0
27/11:30am 17.7 11.2 8.0 53 4.9 SW 32 43 17 23 1024.7 - 0.0
27/11:00am 16.0 9.5 6.4 53 4.7 SSW 30 39 16 21 1024.8 - 0.0
27/10:30am 15.8 9.5 7.6 58 4.1 SSW 30 39 16 21 1025.1 - 0.0
27/10:00am 14.7 8.3 6.8 59 3.8 SSW 30 41 16 22 1025.3 - 0.0
27/09:30am 14.2 7.7 6.6 60 3.7 S 30 41 16 22 1025.6 - 0.0
27/09:00am 13.7 7.6 6.8 63 3.3 SSW 28 35 15 19 1025.8 1025.8 0.0
27/08:30am 12.7 6.5 6.3 65 3.0 SSW 28 39 15 21 1025.7 - 0.0
27/08:00am 11.8 6.0 6.3 69 2.6 SSW 26 35 14 19 1025.6 - 0.0
27/07:30am 10.6 6.0 6.4 75 2.0 SSW 20 28 11 15 1025.3 - 0.0
27/07:00am 9.1 4.7 6.5 84 1.2 SSW 19 22 10 12 1025.0 - 0.0
27/06:30am 6.7 2.4 5.2 90 0.7 SSW 17 20 9 11 1024.7 - 0.0
27/06:00am 5.3 0.8 4.1 92 0.5 SSW 17 19 9 10 1024.3 1024.3 0.0
27/05:30am 5.2 0.6 3.7 90 0.6 SSW 17 20 9 11 1024.1 - 0.0
27/05:00am 4.9 0.7 3.6 91 0.5 SSW 15 17 8 9 1024.1 - 0.0
27/04:30am 5.2 1.0 3.9 91 0.5 SSW 15 15 8 8 1024.0 - 0.0
27/04:00am 5.5 2.0 3.3 86 0.9 SSW 11 13 6 7 1023.8 - 0.0
27/03:30am 6.0 2.6 4.0 87 0.8 SSW 11 11 6 6 1023.6 - 0.0
27/03:00am 5.9 2.1 3.7 86 0.9 SW 13 15 7 8 1023.5 1023.5 0.0
27/02:30am 6.9 2.8 4.2 83 1.2 SW 15 17 8 9 1023.4 - 0.0
27/02:00am 7.5 2.8 5.0 84 1.1 SW 19 22 10 12 1023.3 - 0.0
27/01:30am 7.6 3.3 5.1 84 1.1 SW 17 20 9 11 1023.3 - 0.0
27/01:00am 7.4 3.4 4.9 84 1.1 SW 15 19 8 10 1023.3 - 0.0
27/12:30am 7.8 3.8 5.1 83 1.2 SW 15 19 8 10 1023.4 - 0.0
27/12:00am 8.4 3.7 5.3 81 1.4 SW 19 22 10 12 1023.5 1023.5 0.0
 
Date/Time
EDT
Temp
°C
App
Temp
°C
Dew
Point
Rel
Hum
%
Delta-T
°C
Wind Press
QNH
hPa
Press
MSL
hPa
Rain
since 9 am
mm
Dir
 
Spd
km/h
Gust
km/h
Spd
kts
Gust
kts
26/11:30pm 8.7 3.9 5.4 80 1.5 SSW 20 26 11 14 1023.4 - 0.0
26/11:00pm 9.1 4.3 5.5 78 1.6 SW 20 24 11 13 1023.4 - 0.0
26/10:30pm 8.7 4.4 5.3 79 1.5 SW 17 20 9 11 1023.4 - 0.0
26/10:00pm 9.2 4.9 5.2 76 1.8 SW 17 20 9 11 1023.3 - 0.0
26/09:30pm 9.6 4.4 5.4 75 1.9 SSW 22 28 12 15 1023.0 - 0.0
26/09:00pm 10.2 5.1 5.8 74 2.0 SSW 22 28 12 15 1022.6 1022.6 0.0
26/08:30pm 11.0 5.6 6.2 72 2.2 SSW 24 32 13 17 1022.3 - 0.0
26/08:00pm 12.0 5.5 6.5 69 2.6 SSW 30 39 16 21 1022.2 - 0.0
26/07:30pm 12.3 6.3 5.5 63 3.2 SSW 26 37 14 20 1021.8 - 0.0
26/07:00pm 12.2 5.5 5.6 64 3.1 SW 30 44 16 24 1021.3 - 0.0
26/06:30pm 14.0 7.2 7.1 63 3.4 SSW 32 41 17 22 1020.8 - 0.0
26/06:00pm 13.4 6.3 5.6 59 3.7 SW 32 46 17 25 1020.5 1020.5 0.0
26/05:30pm 14.2 6.7 6.1 58 3.9 SSW 35 52 19 28 1020.3 - 0.0
26/05:00pm 16.4 10.4 8.6 60 4.0 SW 30 44 16 24 1020.2 - 0.0
26/04:30pm 15.1 7.9 9.0 67 3.1 SW 37 50 20 27 1020.1 - 0.0
26/04:00pm 15.1 7.5 7.4 60 3.8 SW 37 50 20 27 1020.0 - 0.0
26/03:30pm 13.9 6.3 7.7 66 3.1 SW 37 50 20 27 1019.9 - 0.0
26/03:00pm 15.2 7.9 7.2 59 3.9 SW 35 46 19 25 1019.7 1019.7 0.0
26/02:30pm 15.7 8.9 7.7 59 4.0 SW 33 48 18 26 1019.4 - 0.0
26/02:00pm 15.9 8.4 7.9 59 4.0 SW 37 50 20 27 1019.4 - 0.0
26/01:30pm 16.3 8.9 6.7 53 4.7 SW 35 44 19 24 1019.3 - 0.0
26/01:00pm 16.8 10.5 8.8 59 4.1 SW 32 41 17 22 1019.2 - 0.0
26/12:30pm 15.7 7.9 6.7 55 4.4 SW 37 46 20 25 1019.1 - 0.0
26/12:24pm 15.3 7.8 6.1 54 4.4 SW 35 54 19 29 1019.1 - 0.0
26/12:00pm 15.6 8.5 6.3 54 4.5 SW 33 46 18 25 1018.9 1018.9 0.0
26/11:30am 15.5 7.9 6.0 53 4.6 WSW 35 50 19 27 1018.6 - 0.0
26/11:00am 15.1 7.4 7.2 59 3.9 SW 37 48 20 26 1018.6 - 0.0
26/10:30am 14.9 7.4 6.2 56 4.2 WSW 35 50 19 27 1018.4 - 0.0
26/10:00am 13.7 6.9 7.0 64 3.3 SW 32 46 17 25 1018.3 - 0.0
26/09:30am 13.9 6.4 8.1 68 2.9 SSW 37 50 20 27 1018.2 - 0.0
26/09:00am 13.9 7.3 7.9 67 3.0 SW 32 43 17 23 1017.7 1017.7 1.0
26/08:30am 13.4 6.9 8.3 71 2.5 WSW 32 43 17 23 1017.5 - 1.0
26/08:00am 13.1 8.7 10.5 84 1.4 WSW 24 33 13 18 1017.2 - 1.0
26/07:30am 12.1 8.3 9.8 86 1.2 SW 20 28 11 15 1016.9 - 1.0
26/07:00am 11.7 7.7 10.6 93 0.6 SW 22 30 12 16 1016.7 - 1.0
26/06:30am 11.2 7.7 10.1 93 0.6 WSW 19 26 10 14 1016.3 - 1.0
26/06:00am 10.8 7.2 10.0 95 0.4 SW 19 24 10 13 1016.0 1016.0 1.0
26/05:30am 11.2 6.9 10.6 96 0.3 SW 24 33 13 18 1015.8 - 1.0
26/05:00am 11.9 5.6 11.1 95 0.4 WSW 35 46 19 25 1015.3 - 1.0
26/04:59am 11.9 5.2 11.1 95 0.4 WSW 37 46 20 25 1015.4 - 1.0
26/04:30am 12.3 8.6 11.4 94 0.5 W 22 32 12 17 1015.0 - 0.6
26/04:00am 12.3 8.6 11.4 94 0.5 W 22 33 12 18 1015.1 - 0.6
26/03:30am 12.3 7.0 11.2 93 0.6 W 30 39 16 21 1015.0 - 0.6
26/03:00am 12.1 7.2 11.2 94 0.5 W 28 37 15 20 1015.1 1015.1 0.6
26/02:30am 12.0 6.9 10.7 92 0.7 W 28 41 15 22 1015.4 - 0.4
26/02:00am 12.2 7.4 10.4 89 0.9 W 26 37 14 20 1015.7 - 0.4
26/01:30am 12.3 7.1 10.2 87 1.1 W 28 41 15 22 1015.8 - 0.4
26/01:00am 12.6 8.0 9.6 82 1.5 W 24 33 13 18 1016.1 - 0.4
26/12:30am 12.4 8.4 9.2 81 1.6 W 20 32 11 17 1016.3 - 0.4
26/12:00am 12.2 7.4 9.0 81 1.6 W 24 32 13 17 1016.6 1016.6 0.4
 
Date/Time
EDT
Temp
°C
App
Temp
°C
Dew
Point
Rel
Hum
%
Delta-T
°C
Wind Press
QNH
hPa
Press
MSL
hPa
Rain
since 9 am
mm
Dir
 
Spd
km/h
Gust
km/h
Spd
kts
Gust
kts
25/11:30pm 12.1 8.1 8.9 81 1.6 W 20 26 11 14 1016.8 - 0.4
25/11:00pm 11.9 8.8 8.7 81 1.6 W 15 24 8 13 1017.1 - 0.4
25/10:30pm 11.6 8.4 8.5 81 1.5 W 15 20 8 11 1017.3 - 0.4
25/10:00pm 11.1 7.4 7.8 80 1.6 W 17 24 9 13 1017.3 - 0.4
25/09:30pm 11.7 8.4 8.2 79 1.7 W 15 24 8 13 1017.2 - 0.4
25/09:00pm 11.7 8.0 8.0 78 1.8 W 17 24 9 13 1017.1 1017.1 0.4
25/08:30pm 11.5 7.1 7.4 76 2.0 W 20 28 11 15 1017.0 - 0.4
25/08:00pm 11.8 6.0 8.1 78 1.8 W 28 39 15 21 1016.8 - 0.4
25/07:30pm 12.6 6.2 6.9 68 2.7 WSW 30 39 16 21 1016.4 - 0.4
25/07:27pm 12.6 5.7 6.6 67 2.9 WSW 32 50 17 27 1016.4 - 0.4
25/07:00pm 13.5 6.1 6.6 63 3.3 WSW 35 43 19 23 1015.9 - 0.4
25/06:30pm 13.7 7.8 7.5 66 3.0 WSW 28 35 15 19 1015.8 - 0.4
25/06:00pm 14.3 8.6 8.5 68 2.9 WSW 28 43 15 23 1015.5 1015.5 0.4
25/05:30pm 14.1 7.3 7.9 66 3.1 WSW 33 43 18 23 1015.5 - 0.4
25/05:00pm 14.3 7.4 8.9 70 2.7 WSW 35 50 19 27 1015.2 - 0.4
25/04:54pm 14.0 8.4 8.8 71 2.6 W 28 50 15 27 1015.0 - 0.4
25/04:30pm 14.1 8.0 9.9 76 2.2 WSW 32 41 17 22 1015.4 - 0.4
25/04:04pm 13.4 7.6 9.5 77 2.0 W 30 48 16 26 1015.3 - 0.4
25/04:00pm 14.8 9.3 9.2 69 2.9 WSW 28 43 15 23 1015.0 - 0.4
25/03:44pm 14.4 8.0 9.4 72 2.6 WSW 33 57 18 31 1014.9 - 0.4
25/03:30pm 14.3 8.1 9.9 75 2.3 WSW 33 46 18 25 1015.0 - 0.4
25/03:25pm 14.0 6.8 10.4 79 1.9 WSW 39 52 21 28 1015.1 - 0.4
25/03:00pm 13.7 7.7 10.1 79 1.9 W 32 50 17 27 1014.8 1014.8 0.4
25/02:30pm 14.6 8.7 10.6 77 2.1 W 32 50 17 27 1014.8 - 0.2
25/02:00pm 14.3 8.5 10.7 79 1.9 W 32 46 17 25 1014.5 - 0.2
25/01:42pm 13.8 7.2 10.0 78 2.0 WSW 35 54 19 29 1014.6 - 0.2
25/01:30pm 15.0 7.4 9.1 68 3.0 W 39 56 21 30 1014.4 - 0.2
25/01:00pm 14.0 6.3 10.2 78 2.0 WSW 41 59 22 32 1014.3 - 0.2
25/12:31pm 14.8 7.4 10.0 73 2.5 W 39 61 21 33 1014.0 - 0.2
25/12:30pm 15.3 8.2 9.7 69 2.9 W 37 52 20 28 1013.9 - 0.2
25/12:00pm 13.7 7.6 11.7 88 1.1 WSW 35 46 19 25 1013.9 1013.9 0.0
25/11:30am 13.9 7.3 10.1 78 2.0 W 35 50 19 27 1013.7 - 0.0
25/11:00am 15.0 9.1 9.1 68 3.0 WSW 30 41 16 22 1013.0 - 0.0
25/10:54am 14.7 8.2 9.1 69 2.9 WSW 33 44 18 24 1013.1 - 0.0
25/10:30am 15.3 8.3 10.1 71 2.7 SW 37 50 20 27 1012.8 - 0.0
25/10:02am 14.9 8.4 8.8 67 3.1 WSW 33 54 18 29 1012.5 - 0.0
25/10:00am 15.3 8.9 9.4 68 3.0 WSW 33 43 18 23 1012.5 - 0.0
25/09:41am 14.5 7.3 9.3 71 2.7 WSW 37 56 20 30 1012.4 - 0.0

Other Formats:

Comma delimited format used in spreadsheet applications
http://www.bom.gov.au/fwo/IDT60801/IDT60801.94953.axf

JavaScript Object Notation format (JSON) in row-major order
http://www.bom.gov.au/fwo/IDT60801/IDT60801.94953.json